Time;durP1;ratioP1;P1;durP2;ratioP2;P2;SDS_P1;SDS_P2;PMS_P1;PMS_P2;Temp;Humidity;BMP_temperature;BMP_pressure;BME280_temperature;BME280_humidity;BME280_pressure;Samples;Min_cycle;Max_cycle;Signal;HPM_P1;HPM_P2
2022/03/25 00:00:24;;;;;;;262.98;35.85;;;3.50;99.90;;;;;;6235155;23;20068;-88
2022/03/25 00:02:51;;;;;;;292.15;39.10;;;3.40;99.90;;;;;;6258268;23;20027;-86
2022/03/25 00:05:40;;;;;;;241.27;37.40;;;3.30;99.90;;;;;;6260011;23;20092;-90
2022/03/25 00:08:37;;;;;;;203.45;33.35;;;3.30;99.90;;;;;;6235747;23;20330;-89
2022/03/25 00:11:21;;;;;;;223.07;34.22;;;3.30;99.90;;;;;;6222599;23;20024;-91
2022/03/25 00:13:47;;;;;;;232.43;34.80;;;3.10;99.90;;;;;;6247564;23;20017;-88
2022/03/25 00:16:13;;;;;;;300.95;33.85;;;3.20;99.90;;;;;;6220842;23;20008;-91
2022/03/25 00:18:39;;;;;;;223.15;32.55;;;3.10;99.90;;;;;;6220363;23;20074;-89
2022/03/25 00:21:05;;;;;;;244.20;34.37;;;3.10;99.90;;;;;;6220742;23;20016;-90
2022/03/25 00:23:31;;;;;;;223.13;32.67;;;3.10;99.90;;;;;;6221042;23;20024;-87
2022/03/25 00:25:57;;;;;;;328.17;35.67;;;3.10;99.90;;;;;;6223746;22;20019;-94
2022/03/25 00:28:22;;;;;;;429.38;42.17;;;3.00;99.90;;;;;;6227668;22;20281;-85
2022/03/25 00:30:49;;;;;;;371.63;38.13;;;3.00;99.90;;;;;;6260517;22;20015;-89
2022/03/25 00:33:15;;;;;;;;;;;3.00;99.90;;;;;;6227204;22;20011;-94
2022/03/25 00:36:23;;;;;;;390.70;42.90;;;2.90;99.90;;;;;;6239192;22;19934;-85
2022/03/25 00:39:04;;;;;;;529.22;48.00;;;2.90;99.90;;;;;;6237587;22;20023;-92
2022/03/25 00:41:32;;;;;;;510.42;46.38;;;2.90;99.90;;;;;;6225716;22;20027;-91
2022/03/25 00:43:58;;;;;;;476.42;46.83;;;2.90;99.90;;;;;;6251015;22;20012;-90
2022/03/25 00:46:24;;;;;;;516.97;51.75;;;2.90;99.90;;;;;;6278063;22;20022;-87
2022/03/25 00:48:49;;;;;;;389.13;38.87;;;2.90;99.90;;;;;;6225982;22;20016;-89
2022/03/25 00:51:15;;;;;;;492.15;46.25;;;3.00;99.90;;;;;;6251262;22;20012;-90
2022/03/25 00:53:41;;;;;;;499.57;45.13;;;2.90;99.90;;;;;;6226027;22;20464;-90
2022/03/25 00:56:06;;;;;;;317.73;36.97;;;2.90;99.90;;;;;;6226036;22;20058;-93
2022/03/25 00:58:33;;;;;;;561.10;45.47;;;2.80;99.90;;;;;;6250543;22;20015;-92
2022/03/25 01:00:58;;;;;;;559.70;48.53;;;2.80;99.90;;;;;;6251086;22;20468;-89
2022/03/25 01:03:24;;;;;;;550.50;44.80;;;2.70;99.90;;;;;;6225677;22;20258;-90
2022/03/25 01:05:50;;;;;;;534.63;43.23;;;2.60;99.90;;;;;;6225961;22;20020;-89
2022/03/25 01:08:16;;;;;;;490.60;43.85;;;2.50;99.90;;;;;;6225539;22;20433;-87
2022/03/25 01:10:49;;;;;;;493.15;41.97;;;2.40;99.90;;;;;;6226702;22;20018;-86
2022/03/25 01:13:15;;;;;;;317.45;39.22;;;2.40;99.90;;;;;;6225804;22;20070;-90
2022/03/25 01:15:41;;;;;;;323.48;38.20;;;2.30;99.90;;;;;;6225564;22;20012;-91
2022/03/25 01:18:07;;;;;;;185.48;34.45;;;2.30;99.90;;;;;;6250321;22;20016;-90
2022/03/25 01:20:51;;;;;;;232.07;35.17;;;2.30;99.90;;;;;;6225182;22;20047;-84
2022/03/25 01:23:37;;;;;;;208.75;33.85;;;2.30;99.90;;;;;;6250853;22;20019;-87
2022/03/25 01:26:03;;;;;;;434.98;39.80;;;2.30;99.90;;;;;;6224682;22;20020;-88
2022/03/25 01:28:34;;;;;;;170.45;31.83;;;2.30;99.90;;;;;;6225181;22;20078;-86
2022/03/25 01:31:01;;;;;;;201.52;32.85;;;2.40;99.90;;;;;;6250397;22;20012;-89
2022/03/25 01:33:27;;;;;;;187.75;30.13;;;2.40;99.90;;;;;;6225181;22;20020;-88
2022/03/25 01:35:53;;;;;;;156.45;31.27;;;2.40;99.90;;;;;;6225213;22;20015;-87
2022/03/25 01:40:57;;;;;;;75.28;26.60;;;2.30;99.90;;;;;;6290368;22;20020;-86
2022/03/25 01:43:22;;;;;;;82.05;27.92;;;2.30;99.90;;;;;;6237324;22;20032;-91
2022/03/25 01:45:48;;;;;;;114.35;30.50;;;2.30;99.90;;;;;;6226214;22;20453;-96
2022/03/25 01:48:16;;;;;;;58.13;28.53;;;2.30;99.90;;;;;;6225555;22;20019;-88
2022/03/25 01:50:44;;;;;;;333.80;35.88;;;2.30;99.90;;;;;;6253605;22;20016;-88
2022/03/25 01:53:16;;;;;;;57.85;29.42;;;2.40;99.90;;;;;;6226432;22;20023;-93
2022/03/25 01:56:35;;;;;;;96.43;33.75;;;2.30;99.90;;;;;;6225803;22;20012;-89
2022/03/25 01:59:24;;;;;;;165.13;32.63;;;2.30;99.90;;;;;;6227413;22;20016;-88
2022/03/25 02:09:36;;;;;;;85.30;28.90;;;2.20;99.90;;;;;;6275820;22;20030;-87
2022/03/25 02:12:01;;;;;;;37.97;26.88;;;2.10;99.90;;;;;;6224280;22;20007;-87
2022/03/25 02:14:27;;;;;;;37.25;29.00;;;2.10;99.90;;;;;;6276682;22;20019;-89
2022/03/25 02:16:53;;;;;;;77.75;28.35;;;2.10;99.90;;;;;;6224391;22;20018;-89
2022/03/25 02:19:19;;;;;;;158.40;26.52;;;2.10;99.90;;;;;;6249699;22;20016;-89
2022/03/25 02:21:54;;;;;;;175.30;30.23;;;2.10;99.90;;;;;;6225272;22;20091;-88
2022/03/25 02:24:20;;;;;;;157.15;31.38;;;2.10;99.90;;;;;;6224829;22;20012;-90
2022/03/25 02:26:46;;;;;;;316.50;36.13;;;2.00;99.90;;;;;;6249618;22;20046;-87
2022/03/25 02:29:16;;;;;;;189.57;35.10;;;2.00;99.90;;;;;;6249536;22;20022;-87
2022/03/25 02:32:22;;;;;;;232.90;32.25;;;2.00;99.90;;;;;;6276569;22;20518;-86
2022/03/25 02:35:19;;;;;;;67.57;29.15;;;2.10;99.90;;;;;;6224503;22;20020;-87
2022/03/25 02:38:00;;;;;;;340.58;33.92;;;2.20;99.90;;;;;;6227757;22;20027;-87
2022/03/25 02:40:25;;;;;;;453.55;39.03;;;2.20;99.90;;;;;;6229034;22;20020;-89
2022/03/25 02:42:51;;;;;;;369.02;36.78;;;2.10;99.90;;;;;;6226477;22;20012;-86
2022/03/25 02:45:21;;;;;;;298.37;38.40;;;2.00;99.90;;;;;;6251972;22;20353;-92
2022/03/25 02:47:47;;;;;;;447.10;40.58;;;1.90;99.90;;;;;;6225361;22;20015;-86
2022/03/25 02:50:12;;;;;;;313.65;39.92;;;1.90;99.90;;;;;;6224851;22;20405;-87
2022/03/25 02:52:41;;;;;;;368.05;41.60;;;1.80;99.90;;;;;;6225972;22;20015;-86
2022/03/25 02:55:12;;;;;;;315.30;41.33;;;1.80;99.90;;;;;;6250163;22;20023;-88
2022/03/25 02:57:38;;;;;;;127.10;35.47;;;1.80;99.90;;;;;;6224581;22;20483;-86
2022/03/25 03:00:08;;;;;;;105.55;35.45;;;1.80;99.90;;;;;;6250585;22;20012;-86
2022/03/25 03:03:00;;;;;;;167.65;34.67;;;1.90;99.90;;;;;;6224863;22;20047;-87
2022/03/25 03:06:03;;;;;;;158.00;33.17;;;1.90;99.90;;;;;;6251406;22;20020;-87
2022/03/25 03:08:30;;;;;;;322.25;36.85;;;1.90;99.90;;;;;;6223668;22;20019;-86
2022/03/25 03:10:56;;;;;;;;;;;1.80;99.90;;;;;;6250028;22;20015;-87
2022/03/25 03:13:22;;;;;;;344.90;31.70;;;1.70;99.90;;;;;;6224149;22;19919;-86
2022/03/25 03:15:48;;;;;;;133.38;28.08;;;1.70;99.90;;;;;;6249518;22;20091;-87
2022/03/25 03:18:14;;;;;;;187.20;30.40;;;1.60;99.90;;;;;;6276517;22;20016;-89
2022/03/25 03:20:42;;;;;;;207.53;31.37;;;1.50;99.90;;;;;;6276591;22;20012;-86
2022/03/25 03:23:08;;;;;;;176.75;27.67;;;1.50;99.90;;;;;;6276576;22;20016;-90
2022/03/25 03:25:37;;;;;;;224.15;31.92;;;1.50;99.90;;;;;;6249639;22;20004;-86
2022/03/25 03:28:04;;;;;;;158.10;32.85;;;1.40;99.90;;;;;;6276395;22;20344;-87
2022/03/25 03:30:30;;;;;;;117.85;29.48;;;1.40;99.90;;;;;;6223846;22;20011;-89
2022/03/25 03:32:57;;;;;;;62.65;29.35;;;1.30;99.90;;;;;;6249513;22;20015;-88
2022/03/25 03:35:24;;;;;;;;;;;1.30;99.90;;;;;;6250377;22;20008;-87
2022/03/25 03:37:58;;;;;;;58.20;26.92;;;1.30;99.90;;;;;;6277507;22;20312;-87
2022/03/25 03:40:24;;;;;;;52.20;25.88;;;1.30;99.90;;;;;;6224059;22;20047;-87
2022/03/25 03:42:51;;;;;;;33.70;25.92;;;1.20;99.90;;;;;;6225199;22;20051;-87
2022/03/25 03:45:16;;;;;;;32.20;24.77;;;1.30;99.90;;;;;;6278198;22;20063;-89
2022/03/25 03:48:07;;;;;;;29.83;23.25;;;1.30;99.90;;;;;;6251093;22;20113;-88
2022/03/25 03:50:53;;;;;;;31.50;23.88;;;1.30;99.90;;;;;;6225954;22;20023;-90
2022/03/25 03:53:18;;;;;;;30.95;24.38;;;1.30;99.90;;;;;;6226646;22;20023;-92
2022/03/25 03:55:44;;;;;;;28.83;23.63;;;1.20;99.90;;;;;;6251182;22;20016;-88
2022/03/25 03:58:10;;;;;;;30.58;23.52;;;1.30;99.90;;;;;;6226551;22;20130;-93
2022/03/25 04:00:37;;;;;;;29.10;22.73;;;1.30;99.90;;;;;;6251542;22;20095;-89
2022/03/25 04:03:03;;;;;;;28.33;22.25;;;1.30;99.90;;;;;;6251508;22;20445;-89
2022/03/25 04:05:28;;;;;;;28.60;23.30;;;1.30;99.90;;;;;;6251390;22;20039;-94
2022/03/25 04:07:54;;;;;;;25.77;21.70;;;1.30;99.90;;;;;;6221863;22;20024;-94
2022/03/25 04:10:20;;;;;;;27.33;22.27;;;1.20;99.90;;;;;;6198768;23;20345;-88
2022/03/25 04:12:46;;;;;;;42.03;27.83;;;1.10;99.90;;;;;;6198905;23;20131;-90
2022/03/25 04:15:12;;;;;;;40.33;28.13;;;1.20;99.90;;;;;;6201293;23;20025;-91
2022/03/25 04:17:43;;;;;;;35.63;26.52;;;1.20;99.90;;;;;;6200920;23;20043;-91
2022/03/25 04:20:13;;;;;;;35.55;26.08;;;1.30;99.90;;;;;;6220682;23;20012;-95
2022/03/25 04:22:40;;;;;;;33.20;24.25;;;1.30;99.90;;;;;;6221831;23;20012;-89
2022/03/25 04:25:07;;;;;;;39.88;27.33;;;1.30;99.90;;;;;;6171404;23;20016;-88
2022/03/25 04:27:34;;;;;;;40.15;27.85;;;1.30;99.90;;;;;;6195716;23;20008;-94
2022/03/25 04:29:59;;;;;;;44.25;30.38;;;1.30;99.90;;;;;;6195396;23;20499;-88
2022/03/25 04:32:57;;;;;;;42.10;28.70;;;1.30;99.90;;;;;;6221068;23;20099;-92
2022/03/25 04:35:38;;;;;;;40.50;28.58;;;1.30;99.90;;;;;;6195665;23;20077;-87
2022/03/25 04:38:06;;;;;;;42.78;30.08;;;1.30;99.90;;;;;;6219863;23;20023;-86
2022/03/25 04:40:32;;;;;;;44.92;30.15;;;1.30;99.90;;;;;;6194931;23;20016;-86
2022/03/25 04:43:00;;;;;;;45.80;30.40;;;1.30;99.90;;;;;;6246855;23;20020;-87
2022/03/25 04:45:27;;;;;;;46.00;30.92;;;1.30;99.90;;;;;;6246923;23;20020;-86
2022/03/25 04:47:53;;;;;;;51.95;33.10;;;1.30;99.90;;;;;;6219959;23;20019;-86
2022/03/25 04:53:07;;;;;;;46.63;30.77;;;1.30;99.90;;;;;;6272663;22;20266;-88
2022/03/25 04:55:33;;;;;;;47.33;30.70;;;1.30;99.90;;;;;;6225528;22;20051;-93
2022/03/25 04:57:59;;;;;;;49.20;31.63;;;1.30;99.90;;;;;;6225461;22;20050;-87
2022/03/25 05:00:25;;;;;;;51.40;32.75;;;1.30;99.90;;;;;;6250629;22;20026;-87
2022/03/25 05:03:14;;;;;;;49.17;32.97;;;1.30;99.90;;;;;;6225568;22;20050;-87
2022/03/25 05:05:58;;;;;;;56.97;34.20;;;1.30;99.90;;;;;;6224983;22;20016;-86
2022/03/25 05:08:24;;;;;;;47.42;31.33;;;1.40;99.90;;;;;;6224521;22;20032;-88
2022/03/25 05:10:50;;;;;;;50.15;33.00;;;1.40;99.90;;;;;;6277484;22;20401;-87
2022/03/25 05:13:15;;;;;;;50.53;32.15;;;1.40;99.90;;;;;;6250453;22;20018;-88
2022/03/25 05:15:41;;;;;;;48.25;31.77;;;1.40;99.90;;;;;;6250324;22;20084;-86
2022/03/25 05:18:07;;;;;;;44.80;30.33;;;1.40;99.90;;;;;;6277318;22;20016;-87
2022/03/25 05:23:08;;;;;;;53.60;32.13;;;1.40;99.90;;;;;;6276372;22;20024;-87
2022/03/25 05:25:34;;;;;;;49.25;32.15;;;1.40;99.90;;;;;;6224981;22;20057;-86
2022/03/25 05:28:00;;;;;;;54.77;33.37;;;1.40;99.90;;;;;;6249688;22;20444;-86
2022/03/25 05:30:31;;;;;;;53.45;32.22;;;1.40;99.90;;;;;;6249967;22;20392;-87
2022/03/25 05:32:58;;;;;;;51.42;30.92;;;1.40;99.90;;;;;;6224746;22;20016;-87
2022/03/25 05:35:42;;;;;;;46.65;30.48;;;1.30;99.90;;;;;;6250359;22;20019;-87
2022/03/25 05:38:36;;;;;;;51.30;31.75;;;1.30;99.90;;;;;;6250174;22;20048;-88
2022/03/25 05:41:08;;;;;;;55.38;33.65;;;1.30;99.90;;;;;;6224249;22;20016;-86
2022/03/25 05:43:34;;;;;;;59.08;34.67;;;1.30;99.90;;;;;;6249589;22;20008;-85
2022/03/25 05:46:03;;;;;;;56.28;34.10;;;1.30;99.90;;;;;;6277201;22;20070;-91
2022/03/25 05:48:29;;;;;;;61.58;36.75;;;1.30;99.90;;;;;;6224841;22;20023;-85
2022/03/25 05:50:55;;;;;;;69.10;38.42;;;1.30;99.90;;;;;;6224519;22;20026;-83
2022/03/25 05:53:21;;;;;;;65.15;38.63;;;1.40;99.90;;;;;;6276746;22;20338;-84
2022/03/25 05:55:47;;;;;;;63.17;37.70;;;1.50;99.90;;;;;;6250173;22;20053;-83
2022/03/25 05:58:13;;;;;;;69.50;40.28;;;1.50;99.90;;;;;;6223675;22;20023;-82
2022/03/25 06:00:38;;;;;;;60.17;37.38;;;1.60;99.90;;;;;;6249727;22;20023;-82
2022/03/25 06:03:06;;;;;;;72.07;40.67;;;1.70;99.90;;;;;;6249738;22;20023;-85
2022/03/25 06:05:31;;;;;;;69.87;39.10;;;1.70;99.90;;;;;;6223968;22;20027;-83
2022/03/25 06:07:57;;;;;;;63.83;38.33;;;1.80;99.90;;;;;;6249744;22;20018;-83
2022/03/25 06:10:23;;;;;;;65.70;38.53;;;1.80;99.90;;;;;;6249345;22;20341;-83
2022/03/25 06:12:49;;;;;;;64.75;37.38;;;1.90;99.90;;;;;;6249662;22;20020;-82
2022/03/25 06:15:15;;;;;;;65.45;38.42;;;2.00;99.90;;;;;;6249374;22;20020;-84
2022/03/25 06:17:45;;;;;;;66.80;39.05;;;2.00;99.90;;;;;;6249660;22;20026;-86
2022/03/25 06:20:15;;;;;;;61.58;36.42;;;2.10;99.90;;;;;;6276669;22;20073;-85
2022/03/25 06:22:42;;;;;;;56.22;35.03;;;2.10;99.90;;;;;;6249131;22;20015;-85
2022/03/25 06:25:09;;;;;;;62.53;35.90;;;2.20;99.90;;;;;;6270421;22;20020;-89
2022/03/25 06:27:34;;;;;;;;;;;2.20;99.90;;;;;;6222966;22;20019;-89
2022/03/25 06:30:00;;;;;;;61.58;36.80;;;2.30;99.90;;;;;;6224329;22;20243;-87
2022/03/25 06:32:26;;;;;;;55.85;34.40;;;2.30;99.90;;;;;;6249566;22;20020;-85
2022/03/25 06:34:52;;;;;;;52.97;33.63;;;2.40;99.90;;;;;;6249469;22;20511;-85
2022/03/25 06:37:18;;;;;;;62.25;38.53;;;2.50;99.90;;;;;;6226113;22;20090;-89
2022/03/25 06:40:18;;;;;;;60.30;37.30;;;2.50;99.90;;;;;;6248835;22;20449;-90
2022/03/25 06:43:15;;;;;;;59.65;36.67;;;2.60;99.90;;;;;;6224891;22;20043;-90
2022/03/25 06:46:06;;;;;;;63.85;39.15;;;2.70;99.90;;;;;;6225057;22;20054;-89
2022/03/25 06:48:32;;;;;;;69.95;41.08;;;3.00;99.90;;;;;;6224914;22;20026;-94
2022/03/25 06:51:04;;;;;;;66.78;41.17;;;3.20;99.90;;;;;;6225221;22;20047;-90
2022/03/25 06:53:30;;;;;;;72.05;40.70;;;3.50;99.90;;;;;;6225135;22;20022;-90
2022/03/25 06:55:56;;;;;;;71.47;40.93;;;3.80;99.90;;;;;;6224893;22;20095;-89
2022/03/25 06:58:22;;;;;;;71.93;40.10;;;4.20;99.90;;;;;;6224915;22;20016;-89
2022/03/25 07:06:02;;;;;;;70.28;38.67;;;5.30;99.90;;;;;;6245891;22;20323;-91
2022/03/25 07:08:51;;;;;;;68.53;40.72;;;5.60;99.90;;;;;;6220385;22;20028;-93
2022/03/25 07:22:52;;;;;;;64.80;40.80;;;6.70;99.90;;;;;;6259977;22;20024;-93
2022/03/25 07:25:19;;;;;;;66.05;42.80;;;7.00;99.90;;;;;;6196577;23;20078;-92
2022/03/25 07:27:46;;;;;;;65.68;41.60;;;7.40;99.90;;;;;;6196489;23;20016;-91
2022/03/25 07:30:13;;;;;;;63.70;41.70;;;7.90;99.90;;;;;;6196248;23;20349;-91
2022/03/25 07:32:39;;;;;;;69.63;41.70;;;8.10;99.90;;;;;;6196648;23;20064;-89
2022/03/25 07:37:41;;;;;;;65.15;40.78;;;8.10;99.90;;;;;;6254059;22;20448;-93
2022/03/25 07:40:09;;;;;;;60.40;38.95;;;8.40;99.90;;;;;;6226933;22;20063;-91
2022/03/25 07:42:45;;;;;;;54.20;36.53;;;8.90;99.90;;;;;;6226972;22;20018;-92
2022/03/25 07:45:13;;;;;;;53.90;35.47;;;9.50;99.90;;;;;;6226657;22;20361;-92
2022/03/25 08:07:04;;;;;;;40.72;27.15;;;8.90;99.90;;;;;;6277999;22;20019;-94
2022/03/25 08:09:30;;;;;;;45.10;30.03;;;8.70;99.90;;;;;;6226278;22;20449;-93
2022/03/25 08:11:55;;;;;;;43.93;27.03;;;8.70;99.90;;;;;;6226611;22;20305;-92
2022/03/25 08:14:22;;;;;;;42.20;27.87;;;8.60;99.90;;;;;;6226592;22;20026;-91
2022/03/25 08:16:47;;;;;;;40.00;27.08;;;8.60;99.90;;;;;;6251664;22;20090;-95
2022/03/25 08:19:13;;;;;;;41.47;25.87;;;8.60;99.90;;;;;;6226178;22;20053;-91
2022/03/25 08:21:39;;;;;;;35.63;24.20;;;8.70;99.90;;;;;;6226472;22;20019;-92
2022/03/25 08:29:46;;;;;;;35.28;22.80;;;8.70;99.90;;;;;;6250908;22;20402;-90
2022/03/25 08:32:11;;;;;;;;;;;8.70;99.90;;;;;;6256214;22;20036;-92
2022/03/25 08:34:37;;;;;;;33.13;21.80;;;8.80;99.90;;;;;;6241623;22;19915;-88
2022/03/25 08:37:03;;;;;;;32.33;20.83;;;8.80;99.90;;;;;;6245968;22;20011;-89
2022/03/25 08:39:29;;;;;;;34.00;21.80;;;8.80;99.90;;;;;;6239074;22;20094;-91
2022/03/25 08:41:55;;;;;;;32.40;20.85;;;8.90;99.90;;;;;;6249080;22;20020;-90
2022/03/25 08:44:21;;;;;;;33.17;21.07;;;8.90;99.90;;;;;;6246830;22;20039;-91
2022/03/25 08:46:47;;;;;;;33.90;23.00;;;9.00;99.90;;;;;;6226645;22;20027;-90
2022/03/25 08:51:48;;;;;;;34.10;21.23;;;9.10;99.90;;;;;;6277377;22;20024;-90
2022/03/25 08:54:14;;;;;;;31.63;21.00;;;9.20;99.90;;;;;;6224566;22;20495;-89
2022/03/25 08:56:40;;;;;;;37.80;22.35;;;9.20;99.90;;;;;;6224433;22;20012;-89
2022/03/25 08:59:05;;;;;;;33.63;21.40;;;9.30;99.90;;;;;;6247103;22;20011;-89
2022/03/25 09:01:31;;;;;;;34.00;22.13;;;9.30;99.90;;;;;;6250021;22;20016;-89
2022/03/25 09:03:57;;;;;;;35.80;22.63;;;9.40;99.90;;;;;;6249556;22;20051;-89
2022/03/25 09:06:22;;;;;;;34.37;21.43;;;9.40;99.90;;;;;;6225137;22;20012;-87
2022/03/25 09:08:50;;;;;;;38.70;22.03;;;9.50;99.90;;;;;;6225330;22;20038;-90
2022/03/25 09:11:15;;;;;;;32.83;21.77;;;9.60;99.90;;;;;;6225581;22;20012;-89
2022/03/25 09:13:41;;;;;;;34.37;20.80;;;9.70;99.90;;;;;;6249739;22;20039;-89
2022/03/25 09:16:07;;;;;;;31.60;20.57;;;9.70;99.90;;;;;;6224614;22;20051;-89
2022/03/25 09:18:33;;;;;;;35.40;20.80;;;9.80;99.90;;;;;;6225315;22;20022;-89
2022/03/25 09:20:59;;;;;;;31.50;20.73;;;9.90;99.90;;;;;;6250558;22;20020;-89
2022/03/25 09:23:24;;;;;;;32.60;20.27;;;9.90;99.90;;;;;;6224000;22;20012;-90
2022/03/25 09:25:50;;;;;;;31.30;19.20;;;10.10;99.90;;;;;;6225148;22;20015;-90
2022/03/25 09:28:16;;;;;;;29.93;18.17;;;10.20;99.90;;;;;;6250239;22;20445;-90
2022/03/25 09:30:41;;;;;;;32.87;19.53;;;10.30;99.90;;;;;;6250559;22;20019;-89
2022/03/25 09:33:07;;;;;;;32.77;21.00;;;10.30;99.90;;;;;;6250578;22;20034;-89
2022/03/25 09:35:38;;;;;;;31.63;19.33;;;10.40;99.90;;;;;;6225416;22;20094;-89
2022/03/25 09:38:04;;;;;;;31.27;18.90;;;10.60;99.90;;;;;;6250715;22;20011;-89
2022/03/25 09:40:30;;;;;;;31.35;20.15;;;10.70;99.90;;;;;;6224887;22;20436;-89
2022/03/25 09:42:57;;;;;;;30.03;20.20;;;10.70;99.90;;;;;;6225022;22;20016;-89
2022/03/25 09:45:25;;;;;;;33.72;19.88;;;10.80;99.90;;;;;;6225265;22;20016;-89
2022/03/25 09:47:51;;;;;;;32.50;19.20;;;10.90;99.90;;;;;;6224942;22;20008;-90
2022/03/25 09:50:23;;;;;;;28.43;19.23;;;11.00;99.90;;;;;;6225093;22;20080;-89
2022/03/25 09:52:50;;;;;;;24.60;17.88;;;11.10;99.90;;;;;;6250061;22;20016;-89
2022/03/25 09:55:16;;;;;;;33.20;19.85;;;11.10;99.90;;;;;;6225003;22;20141;-89
2022/03/25 09:57:42;;;;;;;30.30;20.00;;;11.30;99.90;;;;;;6250012;22;20393;-91
2022/03/25 10:00:12;;;;;;;31.83;19.42;;;11.40;99.70;;;;;;6225003;22;20016;-89
2022/03/25 10:02:38;;;;;;;31.70;19.33;;;11.50;99.40;;;;;;6250432;22;20057;-91
2022/03/25 10:05:16;;;;;;;34.10;20.15;;;11.60;98.70;;;;;;6224931;22;20098;-90
2022/03/25 10:08:08;;;;;;;29.35;19.83;;;11.70;98.60;;;;;;6225184;22;20449;-91
2022/03/25 10:10:40;;;;;;;33.58;19.95;;;11.80;96.90;;;;;;6217832;22;20019;-90
2022/03/25 10:13:08;;;;;;;28.98;19.63;;;11.90;97.30;;;;;;6250146;22;20095;-90
2022/03/25 10:15:37;;;;;;;31.00;20.90;;;12.00;96.60;;;;;;6224818;22;20386;-90
2022/03/25 10:18:06;;;;;;;31.20;19.55;;;12.10;96.60;;;;;;6224867;22;20015;-89
2022/03/25 10:20:42;;;;;;;32.03;19.20;;;12.10;96.40;;;;;;6224400;22;20012;-89
2022/03/25 10:23:13;;;;;;;28.98;19.52;;;12.20;95.50;;;;;;6224693;22;20015;-90
2022/03/25 10:25:44;;;;;;;33.35;20.13;;;12.30;95.00;;;;;;6224850;22;20022;-90
2022/03/25 10:28:26;;;;;;;30.75;20.33;;;12.50;94.50;;;;;;6224935;22;20016;-90
2022/03/25 10:31:00;;;;;;;31.08;19.98;;;12.50;94.40;;;;;;6224559;22;20019;-89
2022/03/25 10:33:32;;;;;;;34.92;21.17;;;12.70;93.90;;;;;;6249958;22;20016;-89
2022/03/25 10:36:08;;;;;;;29.88;20.02;;;12.70;92.60;;;;;;6224113;22;20027;-89
2022/03/25 10:38:45;;;;;;;33.25;20.08;;;12.80;91.80;;;;;;6224675;22;20323;-89
2022/03/25 10:41:14;;;;;;;31.25;19.85;;;12.90;90.70;;;;;;6225006;22;20047;-90
2022/03/25 10:44:08;;;;;;;32.53;18.50;;;13.00;90.30;;;;;;6224383;22;20441;-87
2022/03/25 10:46:39;;;;;;;31.33;18.88;;;13.10;88.10;;;;;;6218719;22;20094;-88
2022/03/25 10:49:07;;;;;;;36.53;20.60;;;13.20;87.40;;;;;;6224137;22;20015;-90
2022/03/25 10:51:35;;;;;;;33.20;19.38;;;13.30;86.50;;;;;;6226055;22;20050;-89
2022/03/25 10:54:05;;;;;;;30.85;19.92;;;13.30;85.30;;;;;;6253165;22;20026;-89
2022/03/25 10:56:41;;;;;;;29.83;20.17;;;13.40;85.20;;;;;;6227521;22;20033;-90
2022/03/25 10:59:21;;;;;;;29.45;20.45;;;13.50;85.60;;;;;;6228200;22;20110;-89
2022/03/25 11:01:50;;;;;;;32.90;20.33;;;13.50;84.30;;;;;;6253360;22;20102;-90
2022/03/25 11:04:16;;;;;;;31.02;20.48;;;13.60;82.10;;;;;;6228236;22;20015;-90
2022/03/25 11:06:43;;;;;;;33.63;19.25;;;13.70;80.60;;;;;;6228324;22;20012;-90
2022/03/25 11:09:10;;;;;;;31.38;18.88;;;13.70;80.60;;;;;;6228088;22;20070;-90
2022/03/25 11:11:37;;;;;;;30.80;18.75;;;13.80;79.70;;;;;;6228085;22;20020;-90
2022/03/25 11:14:04;;;;;;;32.65;19.45;;;13.80;79.00;;;;;;6228373;22;20019;-88
2022/03/25 11:16:33;;;;;;;31.42;18.55;;;14.00;79.00;;;;;;6228025;22;20405;-89
2022/03/25 11:18:59;;;;;;;27.50;18.05;;;14.00;77.90;;;;;;6229129;22;20019;-90
2022/03/25 11:21:26;;;;;;;29.25;18.08;;;14.10;77.00;;;;;;6227988;22;20336;-89
2022/03/25 11:23:54;;;;;;;29.70;17.30;;;14.20;74.70;;;;;;6228317;22;20015;-89
2022/03/25 11:26:23;;;;;;;29.10;18.20;;;14.20;74.60;;;;;;6228029;22;20020;-90
2022/03/25 11:28:59;;;;;;;30.83;16.80;;;14.20;73.40;;;;;;6227583;22;20015;-89
2022/03/25 11:31:24;;;;;;;27.10;17.42;;;14.20;72.10;;;;;;6252763;22;20016;-88
2022/03/25 11:34:09;;;;;;;29.50;17.02;;;14.30;73.40;;;;;;6252745;22;20505;-89
2022/03/25 11:36:41;;;;;;;28.30;16.70;;;14.40;72.30;;;;;;6227556;22;20047;-90
2022/03/25 11:39:24;;;;;;;26.95;16.40;;;14.50;71.30;;;;;;6227588;22;20420;-90
2022/03/25 11:41:51;;;;;;;23.65;15.30;;;14.50;68.40;;;;;;6227635;22;20053;-89
2022/03/25 11:44:24;;;;;;;24.05;15.00;;;14.60;69.10;;;;;;6227366;22;20035;-89
2022/03/25 11:46:59;;;;;;;27.83;15.00;;;14.60;67.50;;;;;;6227575;22;20066;-90
2022/03/25 11:49:26;;;;;;;27.42;13.25;;;14.60;65.80;;;;;;6227493;22;20456;-91
2022/03/25 11:51:52;;;;;;;22.67;12.88;;;14.60;64.70;;;;;;6227661;22;20018;-91
2022/03/25 11:54:36;;;;;;;22.90;14.20;;;14.60;64.50;;;;;;6227454;22;20098;-90
2022/03/25 11:57:03;;;;;;;21.80;13.38;;;14.60;64.10;;;;;;6227461;22;20015;-90
2022/03/25 11:59:53;;;;;;;21.95;12.75;;;14.70;62.50;;;;;;6227148;22;20445;-88
2022/03/25 12:02:29;;;;;;;23.30;12.23;;;14.70;61.60;;;;;;6233618;22;20019;-91
2022/03/25 12:04:56;;;;;;;22.88;13.07;;;14.70;60.70;;;;;;6226061;22;20015;-89
2022/03/25 12:07:22;;;;;;;20.23;11.90;;;14.70;60.90;;;;;;6226246;22;20041;-91
2022/03/25 12:09:48;;;;;;;19.95;12.18;;;14.70;60.30;;;;;;6226048;22;20047;-92
2022/03/25 12:12:14;;;;;;;17.63;11.57;;;14.70;59.60;;;;;;6226246;22;20014;-90
2022/03/25 12:15:10;;;;;;;18.58;11.23;;;14.70;58.80;;;;;;6226395;22;20142;-92
2022/03/25 12:17:38;;;;;;;18.08;11.88;;;14.70;56.10;;;;;;6226311;22;20023;-91
2022/03/25 12:20:05;;;;;;;21.65;12.57;;;14.70;57.30;;;;;;6226142;22;20437;-90
2022/03/25 12:22:37;;;;;;;20.52;12.05;;;14.60;56.50;;;;;;6226179;22;20016;-90
2022/03/25 12:25:08;;;;;;;20.63;12.82;;;14.70;56.60;;;;;;6226137;22;20016;-91
2022/03/25 12:27:34;;;;;;;24.80;14.73;;;14.70;56.10;;;;;;6225767;22;20016;-89
2022/03/25 12:30:00;;;;;;;26.05;15.43;;;14.80;57.30;;;;;;6226055;22;20023;-93
2022/03/25 12:32:31;;;;;;;27.33;17.17;;;14.80;57.60;;;;;;6226207;22;20047;-91
2022/03/25 12:35:07;;;;;;;27.88;16.60;;;14.80;57.60;;;;;;6225253;22;20038;-91
2022/03/25 12:37:53;;;;;;;27.13;15.63;;;14.80;55.50;;;;;;6225984;22;20023;-90
2022/03/25 12:40:25;;;;;;;25.50;17.58;;;14.80;55.80;;;;;;6226101;22;20019;-90
2022/03/25 12:42:59;;;;;;;27.67;17.80;;;14.80;56.50;;;;;;6225839;22;20015;-89
2022/03/25 12:45:34;;;;;;;25.92;17.20;;;14.80;57.00;;;;;;6226098;22;20047;-90
2022/03/25 12:48:15;;;;;;;28.42;16.10;;;14.80;56.30;;;;;;6225809;22;20019;-90
2022/03/25 12:50:49;;;;;;;26.20;16.45;;;14.80;56.10;;;;;;6225850;22;20046;-91
2022/03/25 12:53:16;;;;;;;27.38;16.77;;;14.80;55.80;;;;;;6226032;22;20449;-91
2022/03/25 12:55:43;;;;;;;29.08;17.42;;;14.90;56.20;;;;;;6225751;22;20473;-91
2022/03/25 12:58:11;;;;;;;29.65;18.23;;;14.90;56.20;;;;;;6225698;22;20153;-89
2022/03/25 13:00:38;;;;;;;22.33;14.02;;;14.90;56.10;;;;;;6250866;22;20016;-90
2022/03/25 13:03:04;;;;;;;26.83;15.23;;;14.90;55.20;;;;;;6225592;22;20016;-90
2022/03/25 13:05:31;;;;;;;28.98;16.77;;;14.90;54.70;;;;;;6250736;22;20016;-89
2022/03/25 13:07:57;;;;;;;32.45;16.27;;;14.90;54.70;;;;;;6225508;22;20106;-90
2022/03/25 13:10:23;;;;;;;25.47;16.40;;;14.90;55.10;;;;;;6225387;22;20058;-91
2022/03/25 13:12:53;;;;;;;29.13;15.80;;;15.00;55.30;;;;;;6225577;22;20262;-91
2022/03/25 13:15:37;;;;;;;23.00;13.63;;;15.00;54.80;;;;;;6225537;22;20008;-91
2022/03/25 13:18:05;;;;;;;22.25;13.25;;;15.00;53.70;;;;;;6225444;22;20027;-92
2022/03/25 13:20:45;;;;;;;19.10;11.20;;;15.00;53.70;;;;;;6225838;22;20011;-91
2022/03/25 13:23:17;;;;;;;19.48;12.27;;;15.00;53.10;;;;;;6225950;22;20023;-92
2022/03/25 13:26:11;;;;;;;21.90;13.38;;;15.00;53.40;;;;;;6225898;22;20020;-92
2022/03/25 13:28:39;;;;;;;23.05;12.88;;;15.00;54.40;;;;;;6225858;22;20030;-93
2022/03/25 13:31:07;;;;;;;22.80;12.27;;;15.00;53.90;;;;;;6225969;22;20380;-94
2022/03/25 13:33:42;;;;;;;26.70;15.15;;;15.00;53.90;;;;;;6225982;22;20071;-93
2022/03/25 13:36:09;;;;;;;27.45;14.85;;;15.00;55.60;;;;;;6251501;22;20026;-93
2022/03/25 13:38:37;;;;;;;24.27;13.57;;;15.00;56.70;;;;;;6225983;22;20011;-95
2022/03/25 13:45:38;;;;;;;25.98;15.15;;;15.00;59.30;;;;;;6155665;23;20098;-94
2022/03/25 13:48:14;;;;;;;32.97;16.13;;;15.10;60.60;;;;;;6105811;23;20053;-95
2022/03/25 13:50:48;;;;;;;29.90;15.52;;;15.10;60.70;;;;;;6224218;22;20095;-92
2022/03/25 13:53:17;;;;;;;26.00;14.80;;;15.00;61.30;;;;;;6225569;22;20024;-90
2022/03/25 13:55:43;;;;;;;25.55;15.50;;;15.00;61.40;;;;;;6225603;22;20051;-92